Time;durP1;ratioP1;P1;durP2;ratioP2;P2;SDS_P1;SDS_P2;PMS_P1;PMS_P2;Temp;Humidity;BMP_temperature;BMP_pressure;BME280_temperature;BME280_humidity;BME280_pressure;Samples;Min_cycle;Max_cycle;Signal;HPM_P1;HPM_P2
2023/09/07 00:01:22;;;;;;;2.38;2.20;;;;;;;;;;5037940;28;20252;-83
2023/09/07 00:03:48;;;;;;;3.03;2.75;;;;;;;;;;5048911;28;20235;-84
2023/09/07 00:06:13;;;;;;;5.18;3.10;;;;;;;;;;5038014;28;20207;-84
2023/09/07 00:08:39;;;;;;;3.10;2.70;;;;;;;;;;5059275;28;20713;-84
2023/09/07 00:11:09;;;;;;;2.83;2.60;;;;;;;;;;5041439;28;20263;-85
2023/09/07 00:13:35;;;;;;;3.05;2.83;;;;;;;;;;5055427;28;20226;-84
2023/09/07 00:16:03;;;;;;;4.20;3.08;;;;;;;;;;5055553;28;20243;-84
2023/09/07 00:18:34;;;;;;;4.90;2.53;;;;;;;;;;5057124;28;20230;-84
2023/09/07 00:21:00;;;;;;;4.07;2.80;;;;;;;;;;5038526;28;20675;-84
2023/09/07 00:23:26;;;;;;;3.50;2.78;;;;;;;;;;5046430;28;20293;-83
2023/09/07 00:25:54;;;;;;;2.90;2.63;;;;;;;;;;5084007;28;20259;-83
2023/09/07 00:28:22;;;;;;;3.05;2.75;;;;;;;;;;5081623;28;20212;-83
2023/09/07 00:30:50;;;;;;;2.88;2.67;;;;;;;;;;5051174;28;20225;-84
2023/09/07 00:33:17;;;;;;;3.20;2.90;;;;;;;;;;5088122;28;20222;-83
2023/09/07 00:35:43;;;;;;;3.40;2.85;;;;;;;;;;5050019;28;20243;-83
2023/09/07 00:38:08;;;;;;;2.53;2.42;;;;;;;;;;5059756;28;20272;-83
2023/09/07 00:40:37;;;;;;;3.15;2.85;;;;;;;;;;5090660;28;20322;-84
2023/09/07 00:43:04;;;;;;;2.90;2.70;;;;;;;;;;5065389;28;20216;-84
2023/09/07 00:45:30;;;;;;;2.97;2.65;;;;;;;;;;5070594;28;20219;-84
2023/09/07 00:47:58;;;;;;;3.42;3.13;;;;;;;;;;5057035;28;20222;-84
2023/09/07 00:50:27;;;;;;;3.28;2.97;;;;;;;;;;5051529;28;20240;-85
2023/09/07 00:52:54;;;;;;;5.20;3.05;;;;;;;;;;5054902;28;20191;-84
2023/09/07 00:55:22;;;;;;;3.60;2.97;;;;;;;;;;5039933;28;20238;-85
2023/09/07 00:57:49;;;;;;;3.67;3.38;;;;;;;;;;5058716;28;20257;-84
2023/09/07 01:00:19;;;;;;;3.08;2.88;;;;;;;;;;5052177;28;20282;-84
2023/09/07 01:02:46;;;;;;;3.90;2.70;;;;;;;;;;5059041;28;20492;-85
2023/09/07 01:05:11;;;;;;;2.78;2.58;;;;;;;;;;5036414;28;20270;-85
2023/09/07 01:07:46;;;;;;;3.70;2.85;;;;;;;;;;5055950;28;20236;-83
2023/09/07 01:10:13;;;;;;;5.72;3.42;;;;;;;;;;5071761;28;20241;-84
2023/09/07 01:12:41;;;;;;;3.60;3.00;;;;;;;;;;5054529;28;20206;-84
2023/09/07 01:15:10;;;;;;;3.40;3.10;;;;;;;;;;5066109;28;20218;-84
2023/09/07 01:17:38;;;;;;;3.53;3.25;;;;;;;;;;5040420;28;20245;-85
2023/09/07 01:20:10;;;;;;;3.05;2.75;;;;;;;;;;5054663;28;20218;-84
2023/09/07 01:22:38;;;;;;;3.22;2.70;;;;;;;;;;5056783;28;20217;-83
2023/09/07 01:25:07;;;;;;;3.90;2.75;;;;;;;;;;5069305;28;20223;-83
2023/09/07 01:27:35;;;;;;;2.75;2.58;;;;;;;;;;5080050;28;20222;-84
2023/09/07 01:30:03;;;;;;;4.40;3.35;;;;;;;;;;5048283;28;20236;-83
2023/09/07 01:32:30;;;;;;;3.50;3.20;;;;;;;;;;5057509;28;20209;-84
2023/09/07 01:35:00;;;;;;;4.20;3.10;;;;;;;;;;5073633;28;20217;-84
2023/09/07 01:37:25;;;;;;;3.30;3.10;;;;;;;;;;5071115;28;20227;-83
2023/09/07 01:39:53;;;;;;;3.88;3.30;;;;;;;;;;5056501;28;20216;-84
2023/09/07 01:42:22;;;;;;;4.57;3.17;;;;;;;;;;5051032;28;20222;-84
2023/09/07 01:44:52;;;;;;;3.92;3.25;;;;;;;;;;5056338;28;20224;-84
2023/09/07 01:47:19;;;;;;;4.53;3.60;;;;;;;;;;5058649;28;20221;-83
2023/09/07 01:49:44;;;;;;;4.50;3.95;;;;;;;;;;5072072;28;20278;-84
2023/09/07 01:52:12;;;;;;;3.92;3.53;;;;;;;;;;5048128;28;20222;-84
2023/09/07 01:54:40;;;;;;;3.40;3.20;;;;;;;;;;5062546;28;20214;-84
2023/09/07 01:57:06;;;;;;;5.00;3.13;;;;;;;;;;5066205;28;20231;-84
2023/09/07 01:59:32;;;;;;;4.40;3.40;;;;;;;;;;5032806;28;20262;-85
2023/09/07 02:01:59;;;;;;;3.42;3.13;;;;;;;;;;5050215;28;20311;-84
2023/09/07 02:04:25;;;;;;;5.60;3.55;;;;;;;;;;5065800;28;20234;-85
2023/09/07 02:06:55;;;;;;;3.95;3.40;;;;;;;;;;5059176;28;20255;-84
2023/09/07 02:09:21;;;;;;;3.67;3.40;;;;;;;;;;5063121;28;20209;-83
2023/09/07 02:11:46;;;;;;;4.25;3.58;;;;;;;;;;5058982;28;20279;-84
2023/09/07 02:14:12;;;;;;;3.47;3.17;;;;;;;;;;5048812;28;20277;-84
2023/09/07 02:16:37;;;;;;;3.38;3.08;;;;;;;;;;5050990;28;20214;-84
2023/09/07 02:19:04;;;;;;;3.70;3.10;;;;;;;;;;5042404;28;20261;-84
2023/09/07 02:21:31;;;;;;;3.65;3.38;;;;;;;;;;5053264;28;20204;-84
2023/09/07 02:23:57;;;;;;;3.38;3.17;;;;;;;;;;5059805;28;20228;-84
2023/09/07 02:26:25;;;;;;;4.75;3.50;;;;;;;;;;5051682;28;20217;-84
2023/09/07 02:28:53;;;;;;;3.88;3.58;;;;;;;;;;5073269;28;20222;-84
2023/09/07 02:31:19;;;;;;;7.07;3.63;;;;;;;;;;5053066;28;20229;-85
2023/09/07 02:33:49;;;;;;;5.40;3.70;;;;;;;;;;5049907;28;20328;-84
2023/09/07 02:36:15;;;;;;;3.70;3.40;;;;;;;;;;5055383;28;20226;-82
2023/09/07 02:38:41;;;;;;;3.38;3.17;;;;;;;;;;5031272;28;20228;-84
2023/09/07 02:41:06;;;;;;;4.40;4.00;;;;;;;;;;5048087;28;20233;-83
2023/09/07 02:43:35;;;;;;;4.00;3.55;;;;;;;;;;5070118;28;20221;-84
2023/09/07 02:46:00;;;;;;;3.40;3.20;;;;;;;;;;5066926;28;20226;-84
2023/09/07 02:48:26;;;;;;;4.13;3.80;;;;;;;;;;5067262;28;20283;-83
2023/09/07 02:50:58;;;;;;;4.40;3.70;;;;;;;;;;5058897;28;20220;-84
2023/09/07 02:53:26;;;;;;;5.15;3.92;;;;;;;;;;5050163;28;20238;-84
2023/09/07 02:55:51;;;;;;;4.43;3.92;;;;;;;;;;5040412;28;20210;-84
2023/09/07 02:58:18;;;;;;;4.20;3.83;;;;;;;;;;5084777;28;20233;-83
2023/09/07 03:00:46;;;;;;;4.32;3.85;;;;;;;;;;5052432;28;20218;-85
2023/09/07 03:03:16;;;;;;;4.25;3.80;;;;;;;;;;5074377;28;20226;-84
2023/09/07 03:05:45;;;;;;;6.22;4.22;;;;;;;;;;5060680;28;20218;-84
2023/09/07 03:08:11;;;;;;;4.97;4.05;;;;;;;;;;5050082;28;20320;-84
2023/09/07 03:10:39;;;;;;;4.10;3.80;;;;;;;;;;5050684;28;20258;-84
2023/09/07 03:13:09;;;;;;;4.43;4.07;;;;;;;;;;5067247;28;20241;-85
2023/09/07 03:15:35;;;;;;;4.95;4.30;;;;;;;;;;5056992;28;20218;-84
2023/09/07 03:18:04;;;;;;;4.45;4.05;;;;;;;;;;5043520;28;20223;-83
2023/09/07 03:20:35;;;;;;;4.20;3.88;;;;;;;;;;5043086;28;20217;-84
2023/09/07 03:23:01;;;;;;;8.57;4.00;;;;;;;;;;5042180;28;20753;-84
2023/09/07 03:25:27;;;;;;;6.20;4.25;;;;;;;;;;5058232;28;20222;-84
2023/09/07 03:27:55;;;;;;;4.50;4.10;;;;;;;;;;5027290;28;20272;-84
2023/09/07 03:30:20;;;;;;;4.63;4.20;;;;;;;;;;5049228;28;20939;-83
2023/09/07 03:32:48;;;;;;;4.88;4.32;;;;;;;;;;5052110;28;20226;-84
2023/09/07 03:35:15;;;;;;;5.00;4.60;;;;;;;;;;5065703;28;20226;-84
2023/09/07 03:37:42;;;;;;;4.47;4.18;;;;;;;;;;5047724;28;20274;-84
2023/09/07 03:40:09;;;;;;;4.95;4.45;;;;;;;;;;5051625;28;20246;-84
2023/09/07 03:42:35;;;;;;;4.53;4.22;;;;;;;;;;5058807;28;20214;-84
2023/09/07 03:45:03;;;;;;;4.53;4.13;;;;;;;;;;5079510;28;20262;-84
2023/09/07 03:47:31;;;;;;;3.80;3.50;;;;;;;;;;5042552;28;20233;-83
2023/09/07 03:49:58;;;;;;;5.10;4.60;;;;;;;;;;5056334;28;20279;-77
2023/09/07 03:52:26;;;;;;;4.50;4.07;;;;;;;;;;5093446;28;20721;-77
2023/09/07 03:54:53;;;;;;;4.78;4.38;;;;;;;;;;5088291;28;20725;-77
2023/09/07 03:57:21;;;;;;;4.40;4.00;;;;;;;;;;5079075;28;20234;-77
2023/09/07 04:04:09;;;;;;;4.68;4.22;;;;;;;;;;5091187;28;20253;-78
2023/09/07 04:06:39;;;;;;;5.07;3.78;;;;;;;;;;5050238;28;20221;-77
2023/09/07 04:09:14;;;;;;;5.20;4.80;;;;;;;;;;5048296;28;20250;-78
2023/09/07 04:11:42;;;;;;;6.60;4.20;;;;;;;;;;5073548;28;20240;-77
2023/09/07 04:14:12;;;;;;;4.50;4.15;;;;;;;;;;5057994;28;20237;-77
2023/09/07 04:16:38;;;;;;;5.90;4.20;;;;;;;;;;5081326;28;20594;-77
2023/09/07 04:19:04;;;;;;;6.43;4.00;;;;;;;;;;5067975;28;20217;-78
2023/09/07 04:21:32;;;;;;;4.32;3.92;;;;;;;;;;5048559;28;20233;-78
2023/09/07 04:24:00;;;;;;;4.20;3.90;;;;;;;;;;5056321;28;20226;-80
2023/09/07 04:26:26;;;;;;;4.47;4.07;;;;;;;;;;5058560;28;20219;-78
2023/09/07 04:28:54;;;;;;;3.92;3.53;;;;;;;;;;5053201;28;20233;-78
2023/09/07 04:31:27;;;;;;;4.40;4.00;;;;;;;;;;5072869;28;20211;-78
2023/09/07 04:33:53;;;;;;;4.25;3.92;;;;;;;;;;5057001;28;20226;-77
2023/09/07 04:36:21;;;;;;;4.78;4.28;;;;;;;;;;5071591;28;20600;-78
2023/09/07 04:38:48;;;;;;;4.97;4.18;;;;;;;;;;5047288;28;20218;-77
2023/09/07 04:41:14;;;;;;;4.90;4.50;;;;;;;;;;5049680;28;20210;-80
2023/09/07 04:43:43;;;;;;;3.90;3.60;;;;;;;;;;5059653;28;20999;-79
2023/09/07 04:46:11;;;;;;;5.40;4.90;;;;;;;;;;5047231;28;20274;-79
2023/09/07 04:48:38;;;;;;;6.25;4.47;;;;;;;;;;5053043;28;20241;-79
2023/09/07 04:51:07;;;;;;;4.78;4.38;;;;;;;;;;5076169;28;20238;-79
2023/09/07 04:53:36;;;;;;;5.70;4.63;;;;;;;;;;5057969;28;20569;-79
2023/09/07 04:56:03;;;;;;;5.93;4.22;;;;;;;;;;5067584;28;20206;-79
2023/09/07 04:58:29;;;;;;;4.43;3.95;;;;;;;;;;5071619;28;20230;-80
2023/09/07 05:01:08;;;;;;;4.85;4.35;;;;;;;;;;5037894;28;20202;-79
2023/09/07 05:03:35;;;;;;;4.45;4.05;;;;;;;;;;5072486;28;20226;-79
2023/09/07 05:06:03;;;;;;;5.10;4.57;;;;;;;;;;5064773;28;20231;-77
2023/09/07 05:08:29;;;;;;;4.68;4.28;;;;;;;;;;5071511;28;20234;-79
2023/09/07 05:10:56;;;;;;;4.90;4.40;;;;;;;;;;5042194;28;20631;-80
2023/09/07 05:13:23;;;;;;;6.30;4.45;;;;;;;;;;5069119;28;20226;-79
2023/09/07 05:15:50;;;;;;;5.18;4.75;;;;;;;;;;5079779;28;20214;-80
2023/09/07 05:18:17;;;;;;;5.32;4.80;;;;;;;;;;5057870;28;20222;-80
2023/09/07 05:20:44;;;;;;;5.20;4.70;;;;;;;;;;5047827;28;20233;-80
2023/09/07 05:23:12;;;;;;;5.07;4.63;;;;;;;;;;5039328;28;20224;-80
2023/09/07 05:26:10;;;;;;;5.10;4.70;;;;;;;;;;5060378;28;20273;-80
2023/09/07 05:28:44;;;;;;;5.75;4.53;;;;;;;;;;5086573;28;20234;-80
2023/09/07 05:31:11;;;;;;;8.90;5.05;;;;;;;;;;5086368;28;20282;-80
2023/09/07 05:33:36;;;;;;;5.18;4.72;;;;;;;;;;5082197;28;20280;-80
2023/09/07 05:36:02;;;;;;;6.68;4.80;;;;;;;;;;5052666;28;20670;-80
2023/09/07 05:38:28;;;;;;;5.63;5.20;;;;;;;;;;5040946;28;20207;-80
2023/09/07 05:40:54;;;;;;;4.97;4.65;;;;;;;;;;5052334;28;20227;-81
2023/09/07 05:43:21;;;;;;;4.88;4.38;;;;;;;;;;5037960;28;20306;-80
2023/09/07 05:45:47;;;;;;;6.18;5.25;;;;;;;;;;5056475;28;20737;-80
2023/09/07 05:48:13;;;;;;;5.07;4.68;;;;;;;;;;5069934;28;20765;-78
2023/09/07 05:50:40;;;;;;;5.10;4.70;;;;;;;;;;5068785;28;20317;-78
2023/09/07 05:53:05;;;;;;;5.00;4.60;;;;;;;;;;5034859;28;20206;-79
2023/09/07 05:55:32;;;;;;;5.55;5.03;;;;;;;;;;5066961;28;20226;-78
2023/09/07 05:57:58;;;;;;;5.22;4.78;;;;;;;;;;5060575;28;20217;-81
2023/09/07 06:00:25;;;;;;;4.65;4.25;;;;;;;;;;5055989;28;20306;-79
2023/09/07 06:02:50;;;;;;;4.80;4.40;;;;;;;;;;5022062;28;20467;-79
2023/09/07 06:05:16;;;;;;;5.85;5.22;;;;;;;;;;5041318;28;20225;-79
2023/09/07 06:07:43;;;;;;;5.90;4.97;;;;;;;;;;5037612;28;20276;-78
2023/09/07 06:10:12;;;;;;;4.57;4.28;;;;;;;;;;5048655;28;20826;-78
2023/09/07 06:12:38;;;;;;;5.28;4.82;;;;;;;;;;5050361;28;20750;-78
2023/09/07 06:15:04;;;;;;;6.60;4.63;;;;;;;;;;5054070;28;20217;-79
2023/09/07 06:17:30;;;;;;;5.20;4.70;;;;;;;;;;5053337;28;20301;-80
2023/09/07 06:19:56;;;;;;;5.28;4.72;;;;;;;;;;5068175;28;20267;-78
2023/09/07 06:22:22;;;;;;;5.57;4.78;;;;;;;;;;5019550;28;20214;-80
2023/09/07 06:24:52;;;;;;;4.35;4.05;;;;;;;;;;5058630;28;21043;-79
2023/09/07 06:27:21;;;;;;;5.93;4.30;;;;;;;;;;5066200;28;20222;-79
2023/09/07 06:29:47;;;;;;;4.35;4.05;;;;;;;;;;5041048;28;20222;-79
2023/09/07 06:32:13;;;;;;;5.55;4.88;;;;;;;;;;5070697;28;20220;-77
2023/09/07 06:34:39;;;;;;;4.97;4.47;;;;;;;;;;5052796;28;20219;-77
2023/09/07 06:37:07;;;;;;;4.53;4.22;;;;;;;;;;5057792;28;20376;-79
2023/09/07 06:39:37;;;;;;;4.75;4.35;;;;;;;;;;5053404;28;20218;-79
2023/09/07 06:42:03;;;;;;;5.10;4.70;;;;;;;;;;5073351;28;20237;-79
2023/09/07 06:44:45;;;;;;;4.75;4.30;;;;;;;;;;5087896;28;20238;-79
2023/09/07 06:47:10;;;;;;;8.45;4.18;;;;;;;;;;5059096;28;20218;-80
2023/09/07 06:49:38;;;;;;;5.00;4.60;;;;;;;;;;5050459;28;20217;-79
2023/09/07 06:52:03;;;;;;;9.57;4.93;;;;;;;;;;5066479;28;20325;-79
2023/09/07 06:54:32;;;;;;;5.22;4.35;;;;;;;;;;5052423;28;20229;-80
2023/09/07 06:56:57;;;;;;;7.57;4.65;;;;;;;;;;5061656;28;20230;-80
2023/09/07 06:59:26;;;;;;;5.90;4.32;;;;;;;;;;5069186;28;20218;-79
2023/09/07 07:01:51;;;;;;;4.10;3.70;;;;;;;;;;5068747;28;20229;-79
2023/09/07 07:04:26;;;;;;;4.05;3.75;;;;;;;;;;5060330;28;20483;-80
2023/09/07 07:06:54;;;;;;;4.32;3.97;;;;;;;;;;5051402;28;20251;-79
2023/09/07 07:09:23;;;;;;;4.57;4.18;;;;;;;;;;5060292;28;20222;-79
2023/09/07 07:11:49;;;;;;;4.70;3.88;;;;;;;;;;5061153;28;20222;-80
2023/09/07 07:14:15;;;;;;;5.22;3.65;;;;;;;;;;5078707;28;20328;-78
2023/09/07 07:16:43;;;;;;;5.45;4.10;;;;;;;;;;5036708;28;20235;-80
2023/09/07 07:19:09;;;;;;;4.40;3.83;;;;;;;;;;5045468;28;20218;-80
2023/09/07 07:21:35;;;;;;;7.70;4.13;;;;;;;;;;5084830;28;20229;-79
2023/09/07 07:24:01;;;;;;;7.47;4.45;;;;;;;;;;5043130;28;20237;-80
2023/09/07 07:26:27;;;;;;;9.50;4.53;;;;;;;;;;5074493;28;20219;-80
2023/09/07 07:28:53;;;;;;;7.90;5.25;;;;;;;;;;5055883;28;20258;-78
2023/09/07 07:31:19;;;;;;;7.03;4.10;;;;;;;;;;5084553;28;20218;-80
2023/09/07 07:33:48;;;;;;;4.93;3.70;;;;;;;;;;5066495;28;20736;-79
2023/09/07 07:36:14;;;;;;;6.20;3.88;;;;;;;;;;5062866;28;20285;-79
2023/09/07 07:38:42;;;;;;;4.68;3.78;;;;;;;;;;5035916;28;20245;-80
2023/09/07 07:41:09;;;;;;;5.55;4.18;;;;;;;;;;5036437;28;20336;-80
2023/09/07 07:43:35;;;;;;;4.57;4.00;;;;;;;;;;5040450;28;20280;-79
2023/09/07 07:46:03;;;;;;;4.20;3.50;;;;;;;;;;5060881;28;20738;-78
2023/09/07 07:48:30;;;;;;;4.10;3.70;;;;;;;;;;5077087;28;20718;-80
2023/09/07 07:50:56;;;;;;;4.28;3.88;;;;;;;;;;5074575;28;20251;-80
2023/09/07 07:53:22;;;;;;;4.00;3.70;;;;;;;;;;5059727;28;20222;-80
2023/09/07 07:55:48;;;;;;;6.03;3.70;;;;;;;;;;5062301;28;20242;-80
2023/09/07 07:58:17;;;;;;;3.95;3.53;;;;;;;;;;5069394;28;20218;-80
2023/09/07 08:00:51;;;;;;;3.70;3.25;;;;;;;;;;5088122;28;20287;-80
2023/09/07 08:03:22;;;;;;;4.57;3.20;;;;;;;;;;5046610;28;20230;-81
2023/09/07 08:05:51;;;;;;;3.63;3.33;;;;;;;;;;5037551;28;20317;-80
2023/09/07 08:08:17;;;;;;;3.38;3.08;;;;;;;;;;5086833;28;20222;-79
2023/09/07 08:10:47;;;;;;;3.05;2.85;;;;;;;;;;5087164;28;20229;-79
2023/09/07 08:13:13;;;;;;;4.00;3.30;;;;;;;;;;5060036;28;20203;-79
2023/09/07 08:15:39;;;;;;;3.33;3.03;;;;;;;;;;5052274;28;20689;-80
2023/09/07 08:18:06;;;;;;;3.58;3.28;;;;;;;;;;5077170;28;20222;-80
2023/09/07 08:20:32;;;;;;;3.50;3.20;;;;;;;;;;5052277;28;20237;-79
2023/09/07 08:22:58;;;;;;;4.00;3.35;;;;;;;;;;5054554;28;20293;-79
2023/09/07 08:25:27;;;;;;;4.57;3.22;;;;;;;;;;5086359;28;21169;-79
2023/09/07 08:27:57;;;;;;;3.67;3.38;;;;;;;;;;5070396;28;20226;-80
2023/09/07 08:30:24;;;;;;;4.05;3.63;;;;;;;;;;5066319;28;20233;-79
2023/09/07 08:32:52;;;;;;;3.65;3.30;;;;;;;;;;5047418;28;20210;-78
2023/09/07 08:35:18;;;;;;;5.82;3.55;;;;;;;;;;5090548;28;20549;-79
2023/09/07 08:37:43;;;;;;;4.03;3.67;;;;;;;;;;5044765;28;20287;-81
2023/09/07 08:40:11;;;;;;;3.75;3.08;;;;;;;;;;5094677;28;20218;-82
2023/09/07 08:42:39;;;;;;;4.05;3.45;;;;;;;;;;5044258;28;20226;-80
2023/09/07 08:45:07;;;;;;;3.58;3.03;;;;;;;;;;5074317;28;20241;-79
2023/09/07 08:47:37;;;;;;;3.40;3.03;;;;;;;;;;5079573;28;20234;-80
2023/09/07 08:50:02;;;;;;;4.05;3.30;;;;;;;;;;5081862;28;20235;-80
2023/09/07 08:52:28;;;;;;;3.88;2.97;;;;;;;;;;5040508;28;20223;-80
2023/09/07 08:54:54;;;;;;;5.60;2.88;;;;;;;;;;5079498;28;20256;-80
2023/09/07 08:57:22;;;;;;;3.42;3.10;;;;;;;;;;5055447;28;20235;-81
2023/09/07 08:59:50;;;;;;;4.75;3.40;;;;;;;;;;5054618;28;20228;-80
2023/09/07 09:02:16;;;;;;;4.35;3.28;;;;;;;;;;5090603;28;20313;-79
2023/09/07 09:04:42;;;;;;;3.67;3.33;;;;;;;;;;5062568;28;20331;-81
2023/09/07 09:07:07;;;;;;;4.10;2.97;;;;;;;;;;5047365;28;20266;-80
2023/09/07 09:09:33;;;;;;;3.58;3.03;;;;;;;;;;5079500;28;20233;-80
2023/09/07 09:12:11;;;;;;;3.28;3.03;;;;;;;;;;5091192;28;20305;-79
2023/09/07 09:14:37;;;;;;;5.18;3.28;;;;;;;;;;5057576;28;20230;-80
2023/09/07 09:17:02;;;;;;;7.60;3.33;;;;;;;;;;5062494;28;20221;-82
2023/09/07 09:19:37;;;;;;;3.30;3.00;;;;;;;;;;5075210;28;20324;-80
2023/09/07 09:22:05;;;;;;;3.60;3.30;;;;;;;;;;5045142;28;20687;-80
2023/09/07 09:24:35;;;;;;;3.45;3.03;;;;;;;;;;5073857;28;20730;-82
2023/09/07 09:27:00;;;;;;;5.90;3.40;;;;;;;;;;5064975;28;20214;-80
2023/09/07 09:29:30;;;;;;;3.58;3.33;;;;;;;;;;5035207;28;20214;-79
2023/09/07 09:31:59;;;;;;;4.10;3.67;;;;;;;;;;5042175;28;20254;-82
2023/09/07 09:34:24;;;;;;;3.80;3.05;;;;;;;;;;5058487;28;20222;-78
2023/09/07 09:36:50;;;;;;;3.30;2.95;;;;;;;;;;5072654;28;20594;-78
2023/09/07 09:39:23;;;;;;;3.85;3.22;;;;;;;;;;5070713;28;20218;-79
2023/09/07 09:41:49;;;;;;;3.72;3.35;;;;;;;;;;5064114;28;20249;-79
2023/09/07 09:44:15;;;;;;;5.53;3.42;;;;;;;;;;5060918;28;20275;-79
2023/09/07 09:46:40;;;;;;;2.95;2.75;;;;;;;;;;5061802;28;20254;-79
2023/09/07 09:49:07;;;;;;;3.88;3.35;;;;;;;;;;5067581;28;20220;-79
2023/09/07 09:51:35;;;;;;;3.08;2.83;;;;;;;;;;5053833;28;20268;-78
2023/09/07 09:54:02;;;;;;;3.00;2.80;;;;;;;;;;5056276;28;20226;-80
2023/09/07 09:56:27;;;;;;;5.15;3.40;;;;;;;;;;5077477;28;20226;-80
2023/09/07 09:58:55;;;;;;;4.07;2.75;;;;;;;;;;5077110;28;20808;-79
2023/09/07 10:01:22;;;;;;;3.72;2.80;;;;;;;;;;5072725;28;20214;-79
2023/09/07 10:03:48;;;;;;;4.18;2.75;;;;;;;;;;5060557;28;20259;-78
2023/09/07 10:06:28;;;;;;;5.30;3.35;;;;;;;;;;5091925;28;20654;-80
2023/09/07 10:09:17;;;;;;;3.42;3.10;;;;;;;;;;5066651;28;20214;-79
2023/09/07 10:11:44;;;;;;;4.60;2.90;;;;;;;;;;5082436;28;20234;-82
2023/09/07 10:14:14;;;;;;;3.45;3.15;;;;;;;;;;5044927;28;20309;-78
2023/09/07 10:16:46;;;;;;;5.47;3.47;;;;;;;;;;5061121;28;20233;-79
2023/09/07 10:19:29;;;;;;;3.60;3.10;;;;;;;;;;5070142;28;20324;-79
2023/09/07 10:21:57;;;;;;;3.00;2.80;;;;;;;;;;5071484;28;20229;-80
2023/09/07 10:24:30;;;;;;;3.75;2.72;;;;;;;;;;5099956;28;20230;-78
2023/09/07 10:27:12;;;;;;;2.75;2.55;;;;;;;;;;5053185;28;20356;-79
2023/09/07 10:29:46;;;;;;;4.72;3.00;;;;;;;;;;5068296;28;20214;-78
2023/09/07 10:32:15;;;;;;;3.92;3.30;;;;;;;;;;5075116;28;20604;-79
2023/09/07 10:34:45;;;;;;;6.75;2.83;;;;;;;;;;5076388;28;20222;-80
2023/09/07 10:37:19;;;;;;;3.63;3.30;;;;;;;;;;5074156;28;20233;-78
2023/09/07 10:39:45;;;;;;;5.80;3.00;;;;;;;;;;5094580;28;20218;-79
2023/09/07 10:42:26;;;;;;;3.20;2.90;;;;;;;;;;5081027;28;20217;-79
2023/09/07 10:44:54;;;;;;;3.38;2.78;;;;;;;;;;5083652;28;20242;-79
2023/09/07 10:47:19;;;;;;;3.45;2.95;;;;;;;;;;5059656;28;20218;-81
2023/09/07 10:49:45;;;;;;;3.17;2.67;;;;;;;;;;5044462;28;20223;-79
2023/09/07 10:52:12;;;;;;;3.45;3.08;;;;;;;;;;5062771;28;20404;-78
2023/09/07 10:54:38;;;;;;;4.57;3.05;;;;;;;;;;5082178;28;20233;-77
2023/09/07 10:57:10;;;;;;;3.05;2.75;;;;;;;;;;5062566;28;20238;-78
2023/09/07 10:59:36;;;;;;;6.15;3.13;;;;;;;;;;5065444;28;20219;-81
2023/09/07 11:02:05;;;;;;;3.38;3.13;;;;;;;;;;5076085;28;20686;-78
2023/09/07 11:04:31;;;;;;;4.55;3.00;;;;;;;;;;5076949;28;20233;-78
2023/09/07 11:06:59;;;;;;;4.85;2.75;;;;;;;;;;5064896;28;20281;-79
2023/09/07 11:09:32;;;;;;;3.78;3.00;;;;;;;;;;5062403;28;20320;-79
2023/09/07 11:12:26;;;;;;;3.38;3.08;;;;;;;;;;5071474;28;20241;-81
2023/09/07 11:14:52;;;;;;;3.20;2.83;;;;;;;;;;5065321;28;20309;-79
2023/09/07 11:17:20;;;;;;;3.45;2.95;;;;;;;;;;5053141;28;20239;-76
2023/09/07 11:19:51;;;;;;;14.38;5.30;;;;;;;;;;5072127;28;20294;-78
2023/09/07 11:22:17;;;;;;;3.90;2.92;;;;;;;;;;5046727;28;20218;-78
2023/09/07 11:24:43;;;;;;;3.15;2.85;;;;;;;;;;5058489;28;20242;-78
2023/09/07 11:27:09;;;;;;;3.47;3.17;;;;;;;;;;5072998;28;20773;-77
2023/09/07 11:29:39;;;;;;;3.10;2.80;;;;;;;;;;5044068;28;20309;-80
2023/09/07 11:32:08;;;;;;;6.30;3.00;;;;;;;;;;5052413;28;20253;-77
2023/09/07 11:34:36;;;;;;;4.07;2.67;;;;;;;;;;5047254;28;20628;-78
2023/09/07 11:37:04;;;;;;;3.22;2.92;;;;;;;;;;5056613;28;20231;-79
2023/09/07 11:39:32;;;;;;;3.00;2.80;;;;;;;;;;5035353;28;20214;-79
2023/09/07 11:41:58;;;;;;;3.13;2.83;;;;;;;;;;5036372;28;20305;-78
2023/09/07 11:44:24;;;;;;;3.67;3.08;;;;;;;;;;5037986;28;20238;-78
2023/09/07 11:46:50;;;;;;;5.75;2.97;;;;;;;;;;5070645;22;20226;-76
2023/09/07 11:49:20;;;;;;;3.60;2.60;;;;;;;;;;4996233;28;20953;-75
2023/09/07 11:51:52;;;;;;;3.22;2.80;;;;;;;;;;5039314;28;20226;-75
2023/09/07 11:54:21;;;;;;;3.10;2.83;;;;;;;;;;5013408;28;20242;-75
2023/09/07 11:56:47;;;;;;;3.80;2.90;;;;;;;;;;5031783;28;20227;-75
2023/09/07 11:59:18;;;;;;;4.05;2.90;;;;;;;;;;5033778;28;20207;-75
2023/09/07 12:01:44;;;;;;;3.92;3.50;;;;;;;;;;5051606;28;20231;-75
2023/09/07 12:04:12;;;;;;;3.30;2.90;;;;;;;;;;5048869;28;20241;-75
2023/09/07 12:06:38;;;;;;;3.35;3.05;;;;;;;;;;5033488;28;20718;-75
2023/09/07 12:09:07;;;;;;;3.78;3.15;;;;;;;;;;5020079;28;20223;-75
2023/09/07 12:11:34;;;;;;;3.95;3.55;;;;;;;;;;5036504;28;20238;-75
2023/09/07 12:14:00;;;;;;;5.38;2.92;;;;;;;;;;5030414;28;20214;-75
2023/09/07 12:16:28;;;;;;;3.55;3.25;;;;;;;;;;5019451;28;20805;-75
2023/09/07 12:18:54;;;;;;;3.22;2.92;;;;;;;;;;5045564;28;20225;-76
2023/09/07 12:21:22;;;;;;;9.07;3.38;;;;;;;;;;5051864;28;20535;-76
2023/09/07 12:23:48;;;;;;;4.55;3.38;;;;;;;;;;5036992;28;20778;-75
2023/09/07 12:26:14;;;;;;;4.80;3.40;;;;;;;;;;5035349;28;20221;-75
2023/09/07 12:28:45;;;;;;;3.58;2.97;;;;;;;;;;5043198;28;20330;-76
2023/09/07 12:31:15;;;;;;;4.13;3.45;;;;;;;;;;5032478;28;20229;-74
2023/09/07 12:33:40;;;;;;;5.85;3.40;;;;;;;;;;5012763;28;20227;-75
2023/09/07 12:36:09;;;;;;;3.53;3.22;;;;;;;;;;5049309;28;20207;-76
2023/09/07 12:38:37;;;;;;;3.80;3.47;;;;;;;;;;5049245;28;20219;-77
2023/09/07 12:41:05;;;;;;;4.15;3.60;;;;;;;;;;5019067;28;20726;-76
2023/09/07 12:43:32;;;;;;;5.25;3.35;;;;;;;;;;5037177;28;20233;-75
2023/09/07 12:45:58;;;;;;;5.00;3.17;;;;;;;;;;5037200;28;20309;-74
2023/09/07 12:48:26;;;;;;;4.13;3.42;;;;;;;;;;5037008;28;20272;-76
2023/09/07 12:50:54;;;;;;;7.15;3.30;;;;;;;;;;5036388;28;20235;-75
2023/09/07 12:53:27;;;;;;;3.45;3.15;;;;;;;;;;5035102;28;20216;-74
2023/09/07 12:55:55;;;;;;;3.72;3.42;;;;;;;;;;5053741;28;20237;-75
2023/09/07 12:58:20;;;;;;;4.07;3.67;;;;;;;;;;5034300;28;20468;-75
2023/09/07 13:00:48;;;;;;;4.57;3.40;;;;;;;;;;5019487;28;20284;-75
2023/09/07 13:03:16;;;;;;;4.28;3.65;;;;;;;;;;5031343;28;20226;-75
2023/09/07 13:05:41;;;;;;;3.85;3.53;;;;;;;;;;5021726;28;20279;-75
2023/09/07 13:08:10;;;;;;;4.88;3.80;;;;;;;;;;5032871;28;20237;-74
2023/09/07 13:10:38;;;;;;;5.50;3.70;;;;;;;;;;5039927;28;20231;-74
2023/09/07 13:13:04;;;;;;;3.70;3.25;;;;;;;;;;5034210;28;20210;-77
2023/09/07 13:15:29;;;;;;;3.70;3.22;;;;;;;;;;5063576;28;20306;-76
2023/09/07 13:17:55;;;;;;;3.38;3.08;;;;;;;;;;5016778;28;20223;-75
2023/09/07 13:20:21;;;;;;;3.55;3.25;;;;;;;;;;5041610;28;20249;-76
2023/09/07 13:22:46;;;;;;;4.75;3.60;;;;;;;;;;5045268;28;20227;-76
2023/09/07 13:25:12;;;;;;;3.58;3.28;;;;;;;;;;5044169;28;20231;-77
2023/09/07 13:27:37;;;;;;;3.70;3.40;;;;;;;;;;5021871;28;20246;-76
2023/09/07 13:30:07;;;;;;;8.73;3.40;;;;;;;;;;5058269;28;20214;-76
2023/09/07 13:32:34;;;;;;;3.75;3.45;;;;;;;;;;5035881;28;20227;-77
2023/09/07 13:34:59;;;;;;;3.75;3.45;;;;;;;;;;5019668;28;20225;-76
2023/09/07 13:37:25;;;;;;;3.55;3.25;;;;;;;;;;5024476;28;20215;-76
2023/09/07 13:39:53;;;;;;;3.25;2.95;;;;;;;;;;5018527;28;20692;-76
2023/09/07 13:42:23;;;;;;;6.15;3.47;;;;;;;;;;5035400;28;20264;-75
2023/09/07 13:44:49;;;;;;;9.02;3.70;;;;;;;;;;5033091;28;20226;-77
2023/09/07 13:47:15;;;;;;;3.63;3.33;;;;;;;;;;5051033;28;20226;-77
2023/09/07 13:49:50;;;;;;;4.13;3.13;;;;;;;;;;5035715;28;20780;-76
2023/09/07 13:52:15;;;;;;;4.35;3.42;;;;;;;;;;5047448;28;20221;-76
2023/09/07 13:54:41;;;;;;;4.38;3.92;;;;;;;;;;5032135;28;20577;-76
2023/09/07 13:57:09;;;;;;;3.25;2.97;;;;;;;;;;5034288;28;20233;-77
2023/09/07 13:59:36;;;;;;;4.80;3.40;;;;;;;;;;5019145;28;20219;-77
2023/09/07 14:02:03;;;;;;;3.15;2.95;;;;;;;;;;5068027;28;20249;-76
2023/09/07 14:04:30;;;;;;;3.90;3.60;;;;;;;;;;5034164;28;20365;-75
2023/09/07 14:06:58;;;;;;;4.45;2.92;;;;;;;;;;5050138;28;20750;-76
2023/09/07 14:09:24;;;;;;;5.55;3.28;;;;;;;;;;5017922;28;20222;-75
2023/09/07 14:11:52;;;;;;;4.68;2.88;;;;;;;;;;5056934;28;20227;-75
2023/09/07 14:14:21;;;;;;;4.50;3.05;;;;;;;;;;5038188;28;20254;-75
2023/09/07 14:16:46;;;;;;;4.18;2.95;;;;;;;;;;5034032;28;20280;-75
2023/09/07 14:19:12;;;;;;;3.78;3.35;;;;;;;;;;5035171;28;20603;-74
2023/09/07 14:21:40;;;;;;;10.13;3.50;;;;;;;;;;5052048;28;20226;-74
2023/09/07 14:24:07;;;;;;;4.75;2.60;;;;;;;;;;5033298;28;20242;-75
2023/09/07 14:26:33;;;;;;;7.57;3.45;;;;;;;;;;5029446;28;20289;-74
2023/09/07 14:28:58;;;;;;;4.07;2.95;;;;;;;;;;5043135;28;20222;-76
2023/09/07 14:31:26;;;;;;;3.78;3.38;;;;;;;;;;5014879;28;20657;-75
2023/09/07 14:33:52;;;;;;;4.70;4.18;;;;;;;;;;5030678;28;20222;-76
2023/09/07 14:36:19;;;;;;;5.68;3.67;;;;;;;;;;5045306;28;20288;-76
2023/09/07 14:38:49;;;;;;;4.35;3.65;;;;;;;;;;5017677;28;20246;-76
2023/09/07 14:41:22;;;;;;;2.92;2.65;;;;;;;;;;5031157;28;20234;-76
2023/09/07 14:43:53;;;;;;;4.97;2.80;;;;;;;;;;5045294;28;20612;-76
2023/09/07 14:46:18;;;;;;;4.93;2.97;;;;;;;;;;5046936;28;20225;-76
2023/09/07 14:48:51;;;;;;;5.30;3.95;;;;;;;;;;5031696;28;20341;-76
2023/09/07 14:51:17;;;;;;;3.60;3.30;;;;;;;;;;5049399;28;20218;-74